Time;durP1;ratioP1;P1;durP2;ratioP2;P2;SDS_P1;SDS_P2;PMS_P1;PMS_P2;Temp;Humidity;BMP_temperature;BMP_pressure;BME280_temperature;BME280_humidity;BME280_pressure;Samples;Min_cycle;Max_cycle;Signal;HPM_P1;HPM_P2
2023/04/17 00:01:22;;;;;;;29.50;18.67;;;8.20;99.90;;;;;;5110503;27;20217;-82
2023/04/17 00:03:51;;;;;;;31.40;19.35;;;8.20;99.90;;;;;;5128897;27;20051;-82
2023/04/17 00:06:17;;;;;;;29.02;17.17;;;8.20;99.90;;;;;;5108342;27;20118;-83
2023/04/17 00:08:44;;;;;;;34.35;19.95;;;8.20;99.90;;;;;;5127744;27;20054;-83
2023/04/17 00:11:09;;;;;;;30.50;18.80;;;8.20;99.90;;;;;;5107241;27;20398;-83
2023/04/17 00:13:36;;;;;;;30.95;19.10;;;8.20;99.90;;;;;;5109118;27;20448;-83
2023/04/17 00:16:01;;;;;;;32.20;19.23;;;8.20;99.90;;;;;;5108419;27;20050;-83
2023/04/17 00:18:27;;;;;;;32.47;19.40;;;8.20;99.90;;;;;;5097058;28;20047;-83
2023/04/17 00:20:53;;;;;;;31.88;19.30;;;8.20;99.90;;;;;;5122774;27;20042;-83
2023/04/17 00:23:19;;;;;;;32.45;19.95;;;8.20;99.90;;;;;;5095614;27;20075;-82
2023/04/17 00:25:47;;;;;;;32.78;19.50;;;8.20;99.90;;;;;;5092489;27;20047;-82
2023/04/17 00:28:12;;;;;;;36.58;19.77;;;8.20;99.90;;;;;;5090045;28;20092;-83
2023/04/17 00:30:38;;;;;;;33.08;19.88;;;8.20;99.90;;;;;;5108292;27;20055;-83
2023/04/17 00:33:03;;;;;;;31.05;19.17;;;8.20;99.90;;;;;;5104993;28;20110;-82
2023/04/17 00:35:29;;;;;;;37.30;20.05;;;8.20;99.90;;;;;;5118741;27;20047;-82
2023/04/17 00:37:55;;;;;;;35.22;19.90;;;8.20;99.90;;;;;;5096670;28;20147;-82
2023/04/17 00:40:20;;;;;;;32.72;19.40;;;8.20;99.90;;;;;;5108795;27;20343;-82
2023/04/17 00:42:51;;;;;;;34.30;20.42;;;8.20;99.90;;;;;;5108538;28;20136;-82
2023/04/17 00:45:19;;;;;;;37.03;19.73;;;8.20;99.90;;;;;;5092935;27;20457;-82
2023/04/17 00:47:45;;;;;;;34.42;20.48;;;8.20;99.90;;;;;;5124821;27;20055;-82
2023/04/17 00:50:12;;;;;;;38.20;20.75;;;8.30;99.90;;;;;;5110170;28;20520;-82
2023/04/17 00:52:38;;;;;;;35.90;19.75;;;8.30;99.90;;;;;;5091256;28;20047;-82
2023/04/17 00:55:04;;;;;;;33.25;20.67;;;8.30;99.90;;;;;;5111074;28;20053;-82
2023/04/17 00:57:30;;;;;;;35.92;21.10;;;8.30;99.90;;;;;;5109219;28;20043;-83
2023/04/17 00:59:57;;;;;;;35.17;20.60;;;8.20;99.90;;;;;;5128203;27;20084;-82
2023/04/17 01:02:23;;;;;;;36.40;20.30;;;8.50;99.90;;;;;;5106554;28;20055;-82
2023/04/17 01:04:49;;;;;;;39.97;21.13;;;8.20;99.90;;;;;;5128333;27;20051;-82
2023/04/17 01:07:15;;;;;;;35.83;20.92;;;8.20;99.90;;;;;;5112368;27;20389;-81
2023/04/17 01:09:40;;;;;;;34.65;20.05;;;8.20;99.90;;;;;;5095623;27;20051;-82
2023/04/17 01:12:19;;;;;;;37.13;21.13;;;8.30;99.90;;;;;;5129965;27;20073;-82
2023/04/17 01:14:45;;;;;;;36.63;20.92;;;8.20;99.90;;;;;;5113210;27;20549;-82
2023/04/17 01:17:13;;;;;;;36.13;21.60;;;8.20;99.90;;;;;;5131490;27;20042;-83
2023/04/17 01:19:40;;;;;;;36.42;20.92;;;8.20;99.90;;;;;;5113802;27;20561;-83
2023/04/17 01:22:06;;;;;;;43.50;21.65;;;8.40;99.90;;;;;;5096118;27;20051;-82
2023/04/17 01:24:31;;;;;;;40.95;22.27;;;8.20;99.90;;;;;;5113410;27;20118;-82
2023/04/17 01:26:57;;;;;;;41.42;21.60;;;8.20;99.90;;;;;;5112754;27;20169;-82
2023/04/17 01:29:23;;;;;;;42.38;22.45;;;8.20;99.90;;;;;;5131251;27;20485;-82
2023/04/17 01:31:48;;;;;;;42.53;22.70;;;8.20;99.90;;;;;;5112817;27;20874;-83
2023/04/17 01:34:14;;;;;;;37.35;22.27;;;8.10;99.90;;;;;;5113804;27;20113;-82
2023/04/17 01:36:40;;;;;;;39.67;23.02;;;8.20;99.90;;;;;;5129876;27;20062;-82
2023/04/17 01:39:06;;;;;;;41.38;22.50;;;8.20;99.90;;;;;;5132108;27;20046;-82
2023/04/17 01:41:31;;;;;;;40.53;22.67;;;8.10;99.90;;;;;;5131283;27;20377;-82
2023/04/17 01:43:57;;;;;;;47.55;24.88;;;8.20;99.90;;;;;;5112747;27;20040;-82
2023/04/17 01:46:23;;;;;;;44.67;23.65;;;8.20;99.90;;;;;;5110766;27;20043;-82
2023/04/17 01:48:48;;;;;;;44.40;22.92;;;8.20;99.90;;;;;;5108025;27;20089;-83
2023/04/17 01:51:14;;;;;;;44.50;23.55;;;8.20;99.90;;;;;;5112261;27;20409;-83
2023/04/17 01:53:40;;;;;;;44.80;24.27;;;8.20;99.90;;;;;;5131263;27;20039;-81
2023/04/17 01:56:06;;;;;;;43.67;23.70;;;8.90;99.90;;;;;;5112276;27;20042;-82
2023/04/17 01:58:31;;;;;;;46.00;23.25;;;8.20;99.90;;;;;;5101232;28;20050;-82
2023/04/17 02:00:59;;;;;;;44.13;23.75;;;8.20;99.90;;;;;;5096108;27;20039;-83
2023/04/17 02:03:24;;;;;;;49.10;25.10;;;8.20;99.90;;;;;;5109943;27;20508;-83
2023/04/17 02:05:52;;;;;;;45.45;23.38;;;8.20;99.90;;;;;;5130484;27;20051;-83
2023/04/17 02:08:18;;;;;;;42.33;23.45;;;8.20;99.90;;;;;;5131209;27;20135;-83
2023/04/17 02:10:43;;;;;;;46.97;24.83;;;8.20;99.90;;;;;;5130517;27;20071;-83
2023/04/17 02:13:09;;;;;;;50.90;25.35;;;8.20;99.90;;;;;;5094466;27;20649;-83
2023/04/17 02:15:38;;;;;;;46.60;25.17;;;8.20;99.90;;;;;;5094276;27;20047;-83
2023/04/17 02:18:07;;;;;;;48.28;23.88;;;8.20;99.90;;;;;;5106769;27;20047;-83
2023/04/17 02:20:33;;;;;;;47.63;25.10;;;8.20;99.90;;;;;;5112671;27;20035;-83
2023/04/17 02:22:59;;;;;;;47.47;24.40;;;8.20;99.90;;;;;;5082734;28;20127;-83
2023/04/17 02:25:25;;;;;;;46.53;24.45;;;8.20;99.90;;;;;;5085614;27;20043;-84
2023/04/17 02:27:52;;;;;;;49.20;25.20;;;8.20;99.90;;;;;;5131210;27;20035;-83
2023/04/17 02:30:17;;;;;;;47.58;25.08;;;8.20;99.90;;;;;;5108978;27;20051;-83
2023/04/17 02:32:44;;;;;;;49.35;25.45;;;8.20;99.90;;;;;;5110769;27;20061;-81
2023/04/17 02:35:09;;;;;;;47.70;25.05;;;8.20;99.90;;;;;;5112108;27;20043;-82
2023/04/17 02:37:36;;;;;;;55.03;25.13;;;8.20;99.90;;;;;;5129791;27;20047;-82
2023/04/17 02:40:05;;;;;;;47.17;25.00;;;8.20;99.90;;;;;;5128754;27;20058;-82
2023/04/17 02:42:31;;;;;;;50.78;25.80;;;8.20;99.90;;;;;;5130479;27;20047;-82
2023/04/17 02:44:57;;;;;;;51.33;25.45;;;8.20;99.90;;;;;;5112610;27;20192;-82
2023/04/17 02:47:22;;;;;;;48.50;26.00;;;8.20;99.90;;;;;;5122225;27;20124;-82
2023/04/17 02:49:48;;;;;;;50.25;25.48;;;8.20;99.90;;;;;;5103240;27;20076;-82
2023/04/17 02:52:14;;;;;;;52.47;26.55;;;8.20;99.90;;;;;;5111789;27;20127;-82
2023/04/17 02:54:40;;;;;;;54.67;26.15;;;8.20;99.90;;;;;;5111147;27;20147;-82
2023/04/17 02:57:05;;;;;;;49.72;24.63;;;8.20;99.90;;;;;;5110950;27;20039;-83
2023/04/17 02:59:31;;;;;;;48.40;25.50;;;8.20;99.90;;;;;;5105342;27;20038;-83
2023/04/17 03:01:58;;;;;;;51.50;25.48;;;8.20;99.90;;;;;;5128158;27;20039;-83
2023/04/17 03:04:26;;;;;;;46.55;24.30;;;8.20;99.90;;;;;;5110992;27;20059;-83
2023/04/17 03:06:52;;;;;;;51.25;26.08;;;8.20;99.90;;;;;;5129531;27;20152;-83
2023/04/17 03:09:21;;;;;;;49.47;26.08;;;8.20;99.90;;;;;;5116915;27;20134;-83
2023/04/17 03:11:47;;;;;;;47.88;25.88;;;8.20;99.90;;;;;;5100426;27;20047;-83
2023/04/17 03:14:13;;;;;;;50.67;26.02;;;8.20;99.90;;;;;;5110769;27;20043;-83
2023/04/17 03:16:38;;;;;;;53.00;25.98;;;8.20;99.90;;;;;;5107199;27;20096;-82
2023/04/17 03:19:04;;;;;;;51.33;25.42;;;8.20;99.90;;;;;;5101743;27;20051;-83
2023/04/17 03:21:30;;;;;;;53.53;27.85;;;8.20;99.90;;;;;;5110913;27;20473;-82
2023/04/17 03:23:57;;;;;;;44.88;25.30;;;8.20;99.90;;;;;;5129532;27;20039;-82
2023/04/17 03:26:22;;;;;;;50.00;25.80;;;8.20;99.90;;;;;;5111434;27;20058;-82
2023/04/17 03:28:48;;;;;;;51.90;26.30;;;8.20;99.90;;;;;;5110322;27;20046;-83
2023/04/17 03:31:14;;;;;;;49.83;26.55;;;8.30;99.90;;;;;;5107444;27;20031;-82
2023/04/17 03:33:39;;;;;;;49.13;26.23;;;8.30;99.90;;;;;;5110706;27;20480;-82
2023/04/17 03:36:06;;;;;;;52.97;26.63;;;8.30;99.90;;;;;;5128393;27;20051;-82
2023/04/17 03:38:32;;;;;;;51.33;26.33;;;8.30;99.90;;;;;;5109479;27;20043;-82
2023/04/17 03:40:58;;;;;;;54.40;26.83;;;8.30;99.90;;;;;;5093360;27;20043;-82
2023/04/17 03:43:23;;;;;;;49.45;25.80;;;8.20;99.90;;;;;;5110479;27;20058;-82
2023/04/17 03:45:49;;;;;;;49.28;25.92;;;8.20;99.90;;;;;;5126444;27;20051;-83
2023/04/17 03:48:15;;;;;;;55.30;26.73;;;8.20;99.90;;;;;;5107131;27;20074;-82
2023/04/17 03:50:40;;;;;;;52.13;26.48;;;8.40;99.90;;;;;;5129041;27;20377;-82
2023/04/17 03:53:06;;;;;;;54.22;25.80;;;8.20;99.90;;;;;;5108816;27;20074;-82
2023/04/17 03:55:32;;;;;;;52.58;25.40;;;8.20;99.90;;;;;;5110694;27;20122;-82
2023/04/17 03:57:58;;;;;;;54.60;28.27;;;8.20;99.90;;;;;;5091283;28;20076;-81
2023/04/17 04:00:24;;;;;;;49.08;25.27;;;8.20;99.90;;;;;;5128093;27;20046;-82
2023/04/17 04:02:50;;;;;;;50.45;25.40;;;8.20;99.90;;;;;;5091478;27;20047;-82
2023/04/17 04:05:16;;;;;;;49.42;25.08;;;8.20;99.90;;;;;;5109730;27;20047;-83
2023/04/17 04:07:41;;;;;;;53.42;25.25;;;8.20;99.90;;;;;;5127678;27;20377;-82
2023/04/17 04:10:07;;;;;;;50.22;24.48;;;8.20;99.90;;;;;;5109233;27;20497;-82
2023/04/17 04:12:33;;;;;;;54.58;26.55;;;8.10;99.90;;;;;;5128501;27;20419;-83
2023/04/17 04:14:58;;;;;;;54.30;24.42;;;8.20;99.90;;;;;;5110619;27;20040;-83
2023/04/17 04:17:24;;;;;;;52.67;25.92;;;8.10;99.90;;;;;;5092860;27;20035;-82
2023/04/17 04:19:50;;;;;;;53.92;24.25;;;8.10;99.90;;;;;;5109618;27;20046;-82
2023/04/17 04:22:17;;;;;;;51.55;24.50;;;8.10;99.90;;;;;;5108553;27;20043;-82
2023/04/17 04:24:42;;;;;;;50.83;24.58;;;8.10;99.90;;;;;;5128518;27;20051;-82
2023/04/17 04:27:08;;;;;;;48.40;23.58;;;8.10;99.90;;;;;;5108938;27;20053;-82
2023/04/17 04:29:36;;;;;;;53.15;25.23;;;8.10;99.90;;;;;;5126122;27;20111;-82
2023/04/17 04:32:02;;;;;;;53.75;24.65;;;8.00;99.90;;;;;;5128145;27;20115;-83
2023/04/17 04:34:28;;;;;;;50.30;25.02;;;8.10;99.90;;;;;;5109829;27;20100;-82
2023/04/17 04:36:55;;;;;;;49.45;23.95;;;8.00;99.90;;;;;;5127872;27;20078;-82
2023/04/17 04:39:21;;;;;;;48.92;23.33;;;8.10;99.90;;;;;;5128978;27;20472;-83
2023/04/17 04:41:48;;;;;;;53.38;24.33;;;8.00;99.90;;;;;;5122948;27;20146;-82
2023/04/17 04:44:15;;;;;;;44.88;23.77;;;8.00;99.90;;;;;;5128422;28;20111;-83
2023/04/17 04:46:40;;;;;;;45.67;24.08;;;8.00;99.90;;;;;;5109596;28;20047;-82
2023/04/17 04:49:06;;;;;;;48.70;23.67;;;8.10;99.90;;;;;;5092045;27;20830;-82
2023/04/17 04:51:33;;;;;;;45.05;23.00;;;8.10;99.90;;;;;;5109549;28;20139;-82
2023/04/17 04:53:59;;;;;;;46.45;22.65;;;8.10;99.90;;;;;;5109426;27;20073;-82
2023/04/17 04:56:24;;;;;;;41.95;22.35;;;8.00;99.90;;;;;;5108374;28;20461;-83
2023/04/17 04:58:50;;;;;;;43.10;22.73;;;8.00;99.90;;;;;;5108110;28;20126;-82
2023/04/17 05:01:16;;;;;;;45.42;22.83;;;8.00;99.90;;;;;;5126537;28;20052;-82
2023/04/17 05:03:43;;;;;;;41.80;22.30;;;8.00;99.90;;;;;;5109561;28;20134;-82
2023/04/17 05:06:10;;;;;;;43.72;23.35;;;8.00;99.90;;;;;;5125206;27;20142;-82
2023/04/17 05:08:36;;;;;;;42.40;22.75;;;8.00;99.90;;;;;;5108658;28;20084;-83
2023/04/17 05:11:02;;;;;;;39.50;21.45;;;8.00;99.90;;;;;;5127254;27;20053;-82
2023/04/17 05:13:29;;;;;;;40.05;21.85;;;8.10;99.90;;;;;;5109897;28;20039;-82
2023/04/17 05:15:55;;;;;;;41.88;22.88;;;8.00;99.90;;;;;;5109764;28;20054;-82
2023/04/17 05:18:21;;;;;;;43.75;23.38;;;8.00;99.90;;;;;;5109137;28;20038;-82
2023/04/17 05:20:46;;;;;;;40.85;21.90;;;8.00;99.90;;;;;;5126865;28;20051;-82
2023/04/17 05:23:12;;;;;;;40.75;22.50;;;8.30;99.90;;;;;;5125232;28;20043;-83
2023/04/17 05:25:38;;;;;;;38.58;21.45;;;8.10;99.90;;;;;;5127642;27;20062;-82
2023/04/17 05:28:05;;;;;;;41.35;22.40;;;8.00;99.90;;;;;;5125098;27;20550;-82
2023/04/17 05:30:31;;;;;;;40.08;21.55;;;8.00;99.90;;;;;;5127211;28;20047;-81
2023/04/17 05:32:57;;;;;;;41.92;22.00;;;8.00;99.90;;;;;;5123135;28;20047;-82
2023/04/17 05:35:23;;;;;;;39.28;21.17;;;8.00;99.90;;;;;;5115146;28;20058;-82
2023/04/17 05:37:49;;;;;;;38.55;22.17;;;8.00;99.90;;;;;;5105428;28;20043;-82
2023/04/17 05:40:15;;;;;;;45.45;22.08;;;8.00;99.90;;;;;;5073082;28;20127;-83
2023/04/17 05:42:41;;;;;;;39.42;21.35;;;8.00;99.90;;;;;;5094891;28;20161;-83
2023/04/17 05:45:10;;;;;;;38.95;21.35;;;8.00;99.90;;;;;;5089070;28;20044;-83
2023/04/17 05:47:37;;;;;;;37.47;21.38;;;8.00;99.90;;;;;;5086510;28;20048;-83
2023/04/17 05:50:02;;;;;;;40.60;21.77;;;8.00;99.90;;;;;;5095750;28;20039;-83
2023/04/17 05:52:28;;;;;;;38.55;22.48;;;8.10;99.90;;;;;;5108969;28;20062;-83
2023/04/17 05:54:54;;;;;;;40.67;22.08;;;8.00;99.90;;;;;;5111094;28;20118;-82
2023/04/17 05:57:19;;;;;;;39.38;20.27;;;8.00;99.90;;;;;;5111317;28;20051;-82
2023/04/17 05:59:45;;;;;;;37.10;20.85;;;8.00;99.90;;;;;;5091288;28;20039;-82
2023/04/17 06:02:11;;;;;;;35.45;20.15;;;8.00;99.90;;;;;;5109803;28;20039;-82
2023/04/17 06:04:37;;;;;;;37.72;21.63;;;8.00;99.90;;;;;;5108160;28;20040;-82
2023/04/17 06:07:04;;;;;;;42.83;22.05;;;8.00;99.90;;;;;;5109711;28;20119;-82
2023/04/17 06:09:31;;;;;;;37.80;21.23;;;8.00;99.90;;;;;;5109784;28;20127;-82
2023/04/17 06:11:57;;;;;;;41.55;22.80;;;8.00;99.90;;;;;;5110128;28;20048;-82
2023/04/17 06:14:23;;;;;;;37.75;21.83;;;8.00;99.90;;;;;;5107914;28;20048;-82
2023/04/17 06:16:49;;;;;;;38.65;21.30;;;8.10;99.90;;;;;;5107489;28;20047;-82
2023/04/17 06:19:14;;;;;;;40.67;21.50;;;8.10;99.90;;;;;;5110162;28;20043;-82
2023/04/17 06:21:40;;;;;;;35.60;21.05;;;8.20;99.90;;;;;;5090815;28;20047;-82
2023/04/17 06:24:07;;;;;;;37.97;20.77;;;8.20;99.90;;;;;;5108910;28;20043;-82
2023/04/17 06:26:32;;;;;;;35.75;21.13;;;8.30;99.90;;;;;;5109626;28;20039;-82
2023/04/17 06:29:00;;;;;;;36.60;20.95;;;8.30;99.90;;;;;;5110022;28;20043;-81
2023/04/17 06:31:26;;;;;;;34.42;20.48;;;8.30;99.90;;;;;;5107668;28;20073;-80
2023/04/17 06:33:52;;;;;;;37.83;21.02;;;8.40;99.90;;;;;;5109481;28;20402;-82
2023/04/17 06:36:17;;;;;;;36.45;20.75;;;8.40;99.90;;;;;;5116024;27;20043;-82
2023/04/17 06:38:43;;;;;;;35.65;20.73;;;8.50;99.90;;;;;;5130388;27;20062;-82
2023/04/17 06:41:13;;;;;;;35.30;20.88;;;8.50;99.90;;;;;;5130311;27;20534;-81
2023/04/17 06:43:39;;;;;;;33.75;20.70;;;8.50;99.90;;;;;;5131051;27;20082;-82
2023/04/17 06:46:05;;;;;;;34.03;20.65;;;8.50;99.90;;;;;;5112300;27;20143;-82
2023/04/17 06:48:30;;;;;;;32.47;19.67;;;8.60;99.90;;;;;;5110309;27;20054;-82
2023/04/17 06:50:56;;;;;;;34.08;20.38;;;8.60;99.90;;;;;;5096051;28;20051;-82
2023/04/17 06:53:22;;;;;;;34.08;20.60;;;8.60;99.90;;;;;;5074734;28;20050;-82
2023/04/17 06:55:47;;;;;;;35.53;20.60;;;8.60;99.90;;;;;;5090975;28;20047;-83
2023/04/17 06:58:13;;;;;;;35.17;20.80;;;8.60;99.90;;;;;;5110161;28;20062;-82
2023/04/17 07:00:39;;;;;;;34.55;20.80;;;8.60;99.90;;;;;;5091922;28;20046;-82
2023/04/17 07:03:05;;;;;;;35.15;21.42;;;8.60;99.90;;;;;;5091437;28;20071;-82
2023/04/17 07:05:30;;;;;;;34.67;20.92;;;8.60;99.90;;;;;;5092137;28;20165;-82
2023/04/17 07:07:56;;;;;;;36.10;20.98;;;8.70;99.90;;;;;;5091315;28;20134;-82
2023/04/17 07:10:22;;;;;;;32.00;19.83;;;8.80;99.90;;;;;;5091678;28;20043;-82
2023/04/17 07:12:47;;;;;;;32.40;19.98;;;8.80;99.90;;;;;;5073764;28;20055;-82
2023/04/17 07:15:13;;;;;;;33.33;20.42;;;8.90;99.90;;;;;;5091385;28;20192;-83
2023/04/17 07:17:39;;;;;;;30.20;18.58;;;9.00;99.90;;;;;;5074789;28;20048;-83
2023/04/17 07:20:06;;;;;;;30.73;19.10;;;9.10;99.90;;;;;;5102659;27;20322;-83
2023/04/17 07:22:35;;;;;;;30.27;20.17;;;9.10;99.90;;;;;;5110392;27;20055;-82
2023/04/17 07:25:01;;;;;;;31.05;19.45;;;9.20;99.90;;;;;;5111536;27;20763;-82
2023/04/17 07:27:26;;;;;;;30.52;19.20;;;9.30;99.90;;;;;;5111793;27;20225;-82
2023/04/17 07:29:54;;;;;;;32.22;19.83;;;9.40;99.90;;;;;;5129260;27;20405;-81
2023/04/17 07:32:26;;;;;;;29.15;19.30;;;9.50;99.90;;;;;;5111135;27;20055;-83
2023/04/17 07:34:52;;;;;;;30.80;19.95;;;9.60;99.90;;;;;;5128782;27;20065;-83
2023/04/17 07:37:18;;;;;;;29.55;19.85;;;9.70;99.90;;;;;;5096725;28;20502;-83
2023/04/17 07:39:44;;;;;;;29.88;19.60;;;9.80;99.90;;;;;;5090070;28;20537;-83
2023/04/17 07:42:10;;;;;;;31.73;20.25;;;9.90;99.90;;;;;;5089782;28;20181;-83
2023/04/17 07:44:36;;;;;;;32.85;21.40;;;10.40;99.90;;;;;;5090336;28;20083;-84
2023/04/17 07:47:02;;;;;;;32.15;19.73;;;10.70;99.90;;;;;;5090111;28;20177;-84
2023/04/17 07:49:28;;;;;;;30.60;20.17;;;10.90;99.90;;;;;;5091782;27;20448;-82
2023/04/17 07:51:53;;;;;;;33.47;21.88;;;10.40;99.90;;;;;;5103404;27;20055;-83
2023/04/17 07:54:19;;;;;;;29.50;20.38;;;10.60;99.90;;;;;;5108063;28;20054;-87
2023/04/17 07:56:45;;;;;;;29.80;20.65;;;10.80;99.90;;;;;;5104943;27;20122;-86
2023/04/17 07:59:11;;;;;;;33.30;20.77;;;10.90;99.90;;;;;;5109200;27;20039;-86
2023/04/17 08:01:37;;;;;;;31.50;20.50;;;11.00;99.90;;;;;;5105911;27;20063;-88
2023/04/17 08:04:03;;;;;;;28.95;19.88;;;11.10;99.90;;;;;;5090896;28;20078;-86
2023/04/17 08:06:29;;;;;;;30.25;20.80;;;11.10;99.90;;;;;;5103830;27;20050;-87
2023/04/17 08:08:55;;;;;;;29.13;21.15;;;11.30;99.90;;;;;;5110425;27;20055;-86
2023/04/17 08:11:21;;;;;;;30.13;20.60;;;11.20;99.90;;;;;;5110812;27;20417;-86
2023/04/17 08:13:46;;;;;;;29.02;20.08;;;11.20;99.90;;;;;;5107121;28;22221;-86
2023/04/17 08:16:12;;;;;;;26.98;20.20;;;11.20;99.90;;;;;;5105768;27;20035;-86
2023/04/17 08:18:40;;;;;;;32.25;20.98;;;11.30;99.90;;;;;;5091506;27;20035;-87
2023/04/17 08:21:07;;;;;;;29.35;20.17;;;11.40;99.90;;;;;;5091428;27;20058;-87
2023/04/17 08:23:33;;;;;;;27.38;19.73;;;11.40;99.90;;;;;;5109680;27;20059;-86
2023/04/17 08:25:58;;;;;;;29.35;20.13;;;11.40;99.90;;;;;;5110934;27;20035;-87
2023/04/17 08:28:24;;;;;;;28.63;20.33;;;11.50;99.90;;;;;;5110128;27;20084;-86
2023/04/17 08:30:50;;;;;;;28.45;19.00;;;11.60;99.90;;;;;;5093633;27;20046;-86
2023/04/17 08:33:17;;;;;;;28.45;20.75;;;11.60;99.90;;;;;;5110486;27;20050;-86
2023/04/17 08:35:43;;;;;;;29.35;20.38;;;12.20;99.90;;;;;;5125599;27;20064;-86
2023/04/17 08:38:12;;;;;;;29.60;20.30;;;11.80;99.90;;;;;;5090018;28;20047;-87
2023/04/17 08:40:41;;;;;;;30.55;22.08;;;11.90;99.90;;;;;;5089199;28;20047;-87
2023/04/17 08:43:15;;;;;;;30.90;21.63;;;12.00;99.90;;;;;;5088630;28;20505;-87
2023/04/17 08:45:51;;;;;;;29.92;20.88;;;12.00;99.90;;;;;;5107607;28;20176;-87
2023/04/17 08:48:17;;;;;;;28.10;20.77;;;12.60;99.90;;;;;;5088870;28;20541;-87
2023/04/17 08:50:47;;;;;;;32.25;23.80;;;12.30;99.90;;;;;;5094303;28;20175;-87
2023/04/17 08:53:15;;;;;;;29.67;21.73;;;12.30;99.90;;;;;;5090048;28;20131;-87
2023/04/17 08:55:42;;;;;;;32.40;22.55;;;12.60;99.90;;;;;;5115926;28;20046;-87
2023/04/17 08:58:08;;;;;;;31.25;22.70;;;12.60;99.90;;;;;;5109479;28;20043;-87
2023/04/17 09:00:36;;;;;;;28.77;21.60;;;12.70;99.90;;;;;;5109046;28;20565;-87
2023/04/17 09:03:07;;;;;;;28.02;22.38;;;12.80;99.90;;;;;;5109409;27;20043;-87
2023/04/17 09:05:37;;;;;;;33.25;23.13;;;12.90;99.90;;;;;;5110164;28;20445;-86
2023/04/17 09:08:15;;;;;;;28.60;22.42;;;13.00;99.90;;;;;;5124065;28;20509;-88
2023/04/17 09:10:46;;;;;;;31.92;21.45;;;13.10;99.90;;;;;;5108357;28;20047;-88
2023/04/17 09:13:23;;;;;;;28.08;21.80;;;13.20;99.90;;;;;;5092092;28;20122;-88
2023/04/17 09:16:14;;;;;;;30.85;22.17;;;13.20;99.90;;;;;;5093275;28;20035;-88
2023/04/17 09:18:45;;;;;;;30.83;21.45;;;13.30;99.90;;;;;;5092471;28;20047;-87
2023/04/17 09:21:12;;;;;;;34.38;22.52;;;13.40;99.90;;;;;;5093075;28;20378;-88
2023/04/17 09:23:53;;;;;;;29.15;22.40;;;13.50;99.90;;;;;;5127824;27;20050;-87
2023/04/17 09:26:24;;;;;;;29.48;21.15;;;13.50;99.90;;;;;;5111366;27;20072;-86
2023/04/17 09:29:10;;;;;;;29.77;22.33;;;13.60;99.90;;;;;;5096883;27;20100;-87
2023/04/17 09:31:41;;;;;;;29.55;21.30;;;14.00;99.90;;;;;;5131563;27;20657;-86
2023/04/17 09:34:10;;;;;;;30.70;23.15;;;13.60;99.90;;;;;;5131254;27;20043;-85
2023/04/17 09:36:40;;;;;;;29.27;23.20;;;13.70;99.90;;;;;;5113449;27;20058;-86
2023/04/17 09:39:23;;;;;;;29.30;23.08;;;14.10;99.90;;;;;;5111527;27;20066;-86
2023/04/17 09:41:58;;;;;;;25.83;20.95;;;13.90;99.90;;;;;;5104651;27;20107;-86
2023/04/17 09:44:26;;;;;;;27.33;22.80;;;13.60;99.90;;;;;;5113360;27;20382;-86
2023/04/17 09:46:53;;;;;;;25.95;20.67;;;14.20;99.90;;;;;;5096013;27;20509;-86
2023/04/17 09:49:35;;;;;;;26.88;21.05;;;14.10;99.90;;;;;;5096119;27;20043;-85
2023/04/17 09:52:04;;;;;;;36.03;21.60;;;14.30;99.90;;;;;;5130814;27;20123;-85
2023/04/17 09:54:36;;;;;;;26.27;21.05;;;14.40;99.90;;;;;;5094622;27;20043;-87
2023/04/17 09:57:03;;;;;;;24.10;20.48;;;14.40;99.90;;;;;;5113356;27;20043;-86
2023/04/17 09:59:37;;;;;;;24.88;19.85;;;14.50;99.90;;;;;;5112456;27;20051;-87
2023/04/17 10:02:11;;;;;;;23.92;19.58;;;14.60;99.90;;;;;;5096867;27;20043;-87
2023/04/17 10:04:41;;;;;;;23.30;18.48;;;14.80;99.90;;;;;;5129873;27;20213;-87
2023/04/17 10:07:07;;;;;;;25.55;19.83;;;14.70;99.90;;;;;;5106401;28;20167;-87
2023/04/17 10:09:32;;;;;;;21.98;18.77;;;14.90;99.90;;;;;;5105289;27;20128;-87
2023/04/17 10:12:00;;;;;;;21.23;18.80;;;14.90;99.90;;;;;;5128873;27;20077;-86
2023/04/17 10:14:31;;;;;;;20.67;18.38;;;14.80;99.90;;;;;;5130122;27;20177;-86
2023/04/17 10:16:58;;;;;;;22.45;17.52;;;14.90;99.90;;;;;;5092569;28;20043;-85
2023/04/17 10:19:32;;;;;;;20.33;17.75;;;14.90;99.90;;;;;;5112373;27;20110;-86
2023/04/17 10:22:19;;;;;;;18.50;16.05;;;15.00;99.90;;;;;;5107678;27;20078;-86
2023/04/17 10:24:46;;;;;;;18.70;16.65;;;14.70;99.90;;;;;;5101281;27;20058;-87
2023/04/17 10:27:41;;;;;;;19.75;16.45;;;14.70;99.90;;;;;;5113081;27;20070;-86
2023/04/17 10:30:09;;;;;;;19.17;15.73;;;14.80;99.90;;;;;;5109734;27;20393;-86
2023/04/17 10:32:35;;;;;;;18.45;15.73;;;15.00;99.90;;;;;;5110198;27;20039;-85
2023/04/17 10:35:21;;;;;;;17.15;15.35;;;15.20;99.90;;;;;;5107821;27;20070;-88
2023/04/17 10:37:46;;;;;;;19.42;15.77;;;15.40;99.90;;;;;;5111658;27;20062;-86
2023/04/17 10:40:19;;;;;;;16.42;14.73;;;15.50;99.90;;;;;;5095106;27;20047;-86
2023/04/17 10:43:03;;;;;;;18.30;15.43;;;15.90;99.90;;;;;;5107968;27;20050;-87
2023/04/17 10:45:55;;;;;;;16.83;14.68;;;15.70;99.90;;;;;;5103265;28;20129;-87
2023/04/17 10:48:53;;;;;;;15.60;13.90;;;15.60;99.90;;;;;;5097779;27;20047;-87
2023/04/17 10:51:28;;;;;;;16.05;14.18;;;15.40;99.90;;;;;;5093847;27;20054;-88
2023/04/17 10:53:58;;;;;;;16.23;14.38;;;15.40;99.90;;;;;;5109996;27;20055;-86
2023/04/17 10:56:44;;;;;;;15.88;14.18;;;15.70;99.90;;;;;;5111336;27;20144;-85
2023/04/17 10:59:18;;;;;;;16.85;13.25;;;15.80;99.90;;;;;;5094530;27;20046;-86
2023/04/17 11:01:46;;;;;;;15.05;12.90;;;15.70;99.90;;;;;;5110880;27;20499;-85
2023/04/17 11:04:22;;;;;;;14.45;12.95;;;15.70;99.90;;;;;;5113061;27;20039;-84
2023/04/17 11:06:48;;;;;;;15.27;13.32;;;15.50;99.90;;;;;;5096195;27;20039;-85
2023/04/17 11:09:14;;;;;;;16.20;13.57;;;15.40;99.90;;;;;;5095196;27;20267;-87
2023/04/17 11:11:42;;;;;;;21.98;13.07;;;15.30;99.90;;;;;;5111856;27;20160;-86
2023/04/17 11:14:09;;;;;;;14.68;13.07;;;15.20;99.90;;;;;;5095030;27;20158;-85
2023/04/17 11:16:40;;;;;;;16.15;12.63;;;15.20;99.90;;;;;;5112843;27;20035;-87
2023/04/17 11:19:16;;;;;;;15.13;12.57;;;15.20;99.90;;;;;;5111812;27;20043;-86
2023/04/17 11:21:43;;;;;;;15.93;13.05;;;15.30;99.90;;;;;;5112498;27;20046;-87
2023/04/17 11:24:09;;;;;;;15.20;11.93;;;15.40;99.90;;;;;;5111850;27;20503;-87
2023/04/17 11:26:47;;;;;;;13.27;11.68;;;15.30;99.90;;;;;;5130712;27;20047;-86
2023/04/17 11:29:18;;;;;;;12.80;11.43;;;15.40;99.90;;;;;;5130019;27;20043;-85
2023/04/17 11:31:55;;;;;;;14.00;12.52;;;15.70;99.90;;;;;;5110873;27;20362;-86
2023/04/17 11:34:21;;;;;;;15.02;11.15;;;15.20;99.90;;;;;;5074685;28;20051;-86
2023/04/17 11:36:55;;;;;;;12.52;10.95;;;15.20;99.90;;;;;;5108955;28;20094;-85
2023/04/17 11:39:23;;;;;;;12.02;10.23;;;15.30;99.90;;;;;;5075656;27;20079;-85
2023/04/17 11:41:51;;;;;;;12.75;11.23;;;15.40;99.90;;;;;;5111584;27;20061;-84
2023/04/17 11:44:20;;;;;;;12.95;10.73;;;15.80;99.90;;;;;;5093876;27;20086;-85
2023/04/17 11:46:58;;;;;;;16.30;12.02;;;15.30;99.90;;;;;;5091255;28;20154;-86
2023/04/17 11:49:37;;;;;;;14.27;11.65;;;15.40;99.90;;;;;;5108311;27;20147;-85
2023/04/17 11:52:05;;;;;;;17.50;12.45;;;15.40;99.90;;;;;;5094886;27;20051;-85
2023/04/17 11:54:36;;;;;;;14.63;12.00;;;15.50;99.90;;;;;;5092941;28;20501;-85
2023/04/17 11:57:09;;;;;;;13.90;10.70;;;15.60;99.90;;;;;;5108973;27;20043;-85
2023/04/17 11:59:37;;;;;;;11.85;10.43;;;15.90;99.90;;;;;;5078373;27;20155;-87
2023/04/17 12:02:05;;;;;;;15.05;12.73;;;16.30;99.90;;;;;;5128882;27;20047;-86
2023/04/17 12:04:33;;;;;;;12.95;11.25;;;16.50;99.90;;;;;;5110441;27;20058;-86
2023/04/17 12:07:03;;;;;;;14.07;11.07;;;16.70;99.90;;;;;;5102289;28;20054;-85
2023/04/17 12:09:34;;;;;;;14.27;11.60;;;16.90;99.90;;;;;;5107659;28;20039;-86
2023/04/17 12:12:03;;;;;;;15.05;11.68;;;16.60;99.90;;;;;;5090449;28;20202;-87
2023/04/17 12:14:29;;;;;;;16.67;11.60;;;16.60;99.90;;;;;;5072772;28;20047;-86
2023/04/17 12:16:55;;;;;;;13.40;11.93;;;16.50;99.90;;;;;;5103009;27;20043;-86
2023/04/17 12:19:25;;;;;;;15.65;11.45;;;16.50;99.90;;;;;;5108805;27;20043;-87
2023/04/17 12:21:51;;;;;;;15.20;12.05;;;16.40;99.90;;;;;;5089609;27;20039;-88
2023/04/17 12:24:18;;;;;;;14.05;11.80;;;16.60;99.90;;;;;;5109076;27;20382;-86
2023/04/17 12:26:48;;;;;;;15.02;12.48;;;16.20;99.90;;;;;;5105538;28;20049;-87
2023/04/17 12:29:15;;;;;;;14.07;12.02;;;16.10;99.90;;;;;;5128550;27;20047;-86
2023/04/17 12:31:40;;;;;;;13.98;12.57;;;16.20;99.90;;;;;;5128863;27;20084;-87
2023/04/17 12:34:06;;;;;;;13.40;11.95;;;16.00;99.90;;;;;;5128888;27;20075;-84
2023/04/17 12:36:32;;;;;;;16.42;12.35;;;16.20;99.90;;;;;;5129041;27;20058;-86